sensor_id;sensor_type;location;lat;lon;timestamp;temperature;humidity
1129;DHT22;553;51.038;7.216;2023-07-29T00:00:14;19.80;99.90
1129;DHT22;553;51.038;7.216;2023-07-29T00:02:42;19.80;99.90
1129;DHT22;553;51.038;7.216;2023-07-29T00:05:09;19.70;99.90
1129;DHT22;553;51.038;7.216;2023-07-29T00:07:36;19.80;99.90
1129;DHT22;553;51.038;7.216;2023-07-29T00:10:03;19.80;99.90
1129;DHT22;553;51.038;7.216;2023-07-29T00:12:30;19.80;99.90
1129;DHT22;553;51.038;7.216;2023-07-29T00:14:56;19.80;99.90
1129;DHT22;553;51.038;7.216;2023-07-29T00:17:23;19.80;99.90
1129;DHT22;553;51.038;7.216;2023-07-29T00:19:50;19.90;99.90
1129;DHT22;553;51.038;7.216;2023-07-29T00:22:17;19.80;99.90
1129;DHT22;553;51.038;7.216;2023-07-29T00:24:43;19.80;99.90
1129;DHT22;553;51.038;7.216;2023-07-29T00:27:10;19.80;99.90
1129;DHT22;553;51.038;7.216;2023-07-29T00:29:37;19.80;99.90
1129;DHT22;553;51.038;7.216;2023-07-29T00:32:04;19.80;99.90
1129;DHT22;553;51.038;7.216;2023-07-29T00:34:31;19.80;99.90
1129;DHT22;553;51.038;7.216;2023-07-29T00:36:57;19.80;99.90
1129;DHT22;553;51.038;7.216;2023-07-29T00:39:24;19.80;99.90
1129;DHT22;553;51.038;7.216;2023-07-29T00:41:51;19.80;99.90
1129;DHT22;553;51.038;7.216;2023-07-29T00:44:18;19.80;99.90
1129;DHT22;553;51.038;7.216;2023-07-29T00:46:45;19.80;99.90
1129;DHT22;553;51.038;7.216;2023-07-29T00:49:13;19.80;99.90
1129;DHT22;553;51.038;7.216;2023-07-29T00:51:41;19.80;99.90
1129;DHT22;553;51.038;7.216;2023-07-29T00:54:07;19.70;99.90
1129;DHT22;553;51.038;7.216;2023-07-29T00:56:34;19.60;99.90
1129;DHT22;553;51.038;7.216;2023-07-29T00:59:02;19.60;99.90
1129;DHT22;553;51.038;7.216;2023-07-29T01:01:29;19.60;99.90
1129;DHT22;553;51.038;7.216;2023-07-29T01:03:56;19.60;99.90
1129;DHT22;553;51.038;7.216;2023-07-29T01:06:50;19.50;99.90
1129;DHT22;553;51.038;7.216;2023-07-29T01:09:25;19.50;99.90
1129;DHT22;553;51.038;7.216;2023-07-29T01:12:12;19.50;99.90
1129;DHT22;553;51.038;7.216;2023-07-29T01:14:56;19.50;99.90
1129;DHT22;553;51.038;7.216;2023-07-29T01:17:29;19.50;99.90
1129;DHT22;553;51.038;7.216;2023-07-29T01:20:08;19.50;99.90
1129;DHT22;553;51.038;7.216;2023-07-29T01:22:36;19.50;99.90
1129;DHT22;553;51.038;7.216;2023-07-29T01:25:03;19.60;99.90
1129;DHT22;553;51.038;7.216;2023-07-29T01:27:30;19.60;99.90
1129;DHT22;553;51.038;7.216;2023-07-29T01:29:58;19.60;99.90
1129;DHT22;553;51.038;7.216;2023-07-29T01:37:57;19.70;99.90
1129;DHT22;553;51.038;7.216;2023-07-29T01:40:27;19.60;99.90
1129;DHT22;553;51.038;7.216;2023-07-29T01:42:56;19.70;99.90
1129;DHT22;553;51.038;7.216;2023-07-29T01:45:24;19.70;99.90
1129;DHT22;553;51.038;7.216;2023-07-29T01:47:52;19.80;99.90
1129;DHT22;553;51.038;7.216;2023-07-29T01:50:20;19.70;99.90
1129;DHT22;553;51.038;7.216;2023-07-29T01:52:47;19.60;99.90
1129;DHT22;553;51.038;7.216;2023-07-29T01:55:14;19.60;99.90
1129;DHT22;553;51.038;7.216;2023-07-29T01:57:40;19.60;99.90
1129;DHT22;553;51.038;7.216;2023-07-29T02:00:08;19.70;99.90
1129;DHT22;553;51.038;7.216;2023-07-29T02:02:41;19.60;99.90
1129;DHT22;553;51.038;7.216;2023-07-29T02:05:08;19.70;99.90
1129;DHT22;553;51.038;7.216;2023-07-29T02:07:34;19.60;99.90
1129;DHT22;553;51.038;7.216;2023-07-29T02:10:01;19.70;99.90
1129;DHT22;553;51.038;7.216;2023-07-29T02:12:28;19.70;99.90
1129;DHT22;553;51.038;7.216;2023-07-29T02:14:55;19.70;99.90
1129;DHT22;553;51.038;7.216;2023-07-29T02:17:22;19.70;99.90
1129;DHT22;553;51.038;7.216;2023-07-29T02:19:48;19.70;99.90
1129;DHT22;553;51.038;7.216;2023-07-29T02:22:17;19.70;99.90
1129;DHT22;553;51.038;7.216;2023-07-29T02:24:44;19.70;99.90
1129;DHT22;553;51.038;7.216;2023-07-29T02:27:11;19.70;99.90
1129;DHT22;553;51.038;7.216;2023-07-29T02:29:38;19.70;99.90
1129;DHT22;553;51.038;7.216;2023-07-29T02:32:05;19.60;99.90
1129;DHT22;553;51.038;7.216;2023-07-29T02:34:32;19.50;99.90
1129;DHT22;553;51.038;7.216;2023-07-29T02:36:59;19.50;99.90
1129;DHT22;553;51.038;7.216;2023-07-29T02:39:25;19.40;99.90
1129;DHT22;553;51.038;7.216;2023-07-29T02:41:52;19.50;99.90
1129;DHT22;553;51.038;7.216;2023-07-29T02:44:19;19.50;99.90
1129;DHT22;553;51.038;7.216;2023-07-29T02:46:46;19.50;99.90
1129;DHT22;553;51.038;7.216;2023-07-29T02:49:13;19.50;99.90
1129;DHT22;553;51.038;7.216;2023-07-29T02:51:40;19.50;99.90
1129;DHT22;553;51.038;7.216;2023-07-29T02:54:07;19.50;99.90
1129;DHT22;553;51.038;7.216;2023-07-29T02:56:34;19.60;99.90
1129;DHT22;553;51.038;7.216;2023-07-29T02:59:01;19.50;99.90
1129;DHT22;553;51.038;7.216;2023-07-29T03:01:29;19.60;99.90
1129;DHT22;553;51.038;7.216;2023-07-29T03:03:56;19.50;99.90
1129;DHT22;553;51.038;7.216;2023-07-29T03:06:23;19.50;99.90
1129;DHT22;553;51.038;7.216;2023-07-29T03:08:50;19.50;99.90
1129;DHT22;553;51.038;7.216;2023-07-29T03:11:17;19.50;99.90
1129;DHT22;553;51.038;7.216;2023-07-29T03:13:44;19.50;99.90
1129;DHT22;553;51.038;7.216;2023-07-29T03:16:13;19.50;99.90
1129;DHT22;553;51.038;7.216;2023-07-29T03:18:49;19.50;99.90
1129;DHT22;553;51.038;7.216;2023-07-29T03:21:16;19.50;99.90
1129;DHT22;553;51.038;7.216;2023-07-29T03:23:43;19.50;99.90
1129;DHT22;553;51.038;7.216;2023-07-29T03:26:10;19.50;99.90
1129;DHT22;553;51.038;7.216;2023-07-29T03:28:39;19.60;99.90
1129;DHT22;553;51.038;7.216;2023-07-29T03:31:06;19.50;99.90
1129;DHT22;553;51.038;7.216;2023-07-29T03:33:33;19.60;99.90
1129;DHT22;553;51.038;7.216;2023-07-29T03:36:00;19.60;99.90
1129;DHT22;553;51.038;7.216;2023-07-29T03:38:27;19.50;99.90
1129;DHT22;553;51.038;7.216;2023-07-29T03:40:54;19.60;99.90
1129;DHT22;553;51.038;7.216;2023-07-29T03:43:21;19.60;99.90
1129;DHT22;553;51.038;7.216;2023-07-29T03:45:47;19.60;99.90
1129;DHT22;553;51.038;7.216;2023-07-29T03:48:14;19.60;99.90
1129;DHT22;553;51.038;7.216;2023-07-29T03:50:41;19.50;99.90
1129;DHT22;553;51.038;7.216;2023-07-29T03:53:08;19.60;99.90
1129;DHT22;553;51.038;7.216;2023-07-29T03:55:36;19.60;99.90
1129;DHT22;553;51.038;7.216;2023-07-29T03:58:03;19.50;99.90
1129;DHT22;553;51.038;7.216;2023-07-29T04:00:30;19.50;99.90
1129;DHT22;553;51.038;7.216;2023-07-29T04:02:56;19.50;99.90
1129;DHT22;553;51.038;7.216;2023-07-29T04:05:23;19.50;99.90
1129;DHT22;553;51.038;7.216;2023-07-29T04:07:50;19.60;99.90
1129;DHT22;553;51.038;7.216;2023-07-29T04:10:17;19.60;99.90
1129;DHT22;553;51.038;7.216;2023-07-29T04:12:44;19.60;99.90
1129;DHT22;553;51.038;7.216;2023-07-29T04:15:11;19.60;99.90
1129;DHT22;553;51.038;7.216;2023-07-29T04:17:37;19.60;99.90
1129;DHT22;553;51.038;7.216;2023-07-29T04:20:05;19.50;99.90
1129;DHT22;553;51.038;7.216;2023-07-29T04:22:34;19.50;99.90
1129;DHT22;553;51.038;7.216;2023-07-29T04:25:01;19.50;99.90
1129;DHT22;553;51.038;7.216;2023-07-29T04:27:28;19.50;99.90
1129;DHT22;553;51.038;7.216;2023-07-29T04:29:54;19.60;99.90
1129;DHT22;553;51.038;7.216;2023-07-29T04:32:21;19.60;99.90
1129;DHT22;553;51.038;7.216;2023-07-29T04:34:48;19.60;99.90
1129;DHT22;553;51.038;7.216;2023-07-29T04:37:14;19.60;99.90
1129;DHT22;553;51.038;7.216;2023-07-29T04:39:41;19.60;99.90
1129;DHT22;553;51.038;7.216;2023-07-29T04:42:08;19.60;99.90
1129;DHT22;553;51.038;7.216;2023-07-29T04:44:35;19.60;99.90
1129;DHT22;553;51.038;7.216;2023-07-29T04:47:02;19.60;99.90
1129;DHT22;553;51.038;7.216;2023-07-29T04:49:29;19.60;99.90
1129;DHT22;553;51.038;7.216;2023-07-29T04:51:56;19.60;99.90
1129;DHT22;553;51.038;7.216;2023-07-29T04:54:22;19.60;99.90
1129;DHT22;553;51.038;7.216;2023-07-29T04:56:49;19.60;99.90
1129;DHT22;553;51.038;7.216;2023-07-29T04:59:16;19.60;99.90
1129;DHT22;553;51.038;7.216;2023-07-29T05:01:43;19.50;99.90
1129;DHT22;553;51.038;7.216;2023-07-29T05:04:10;19.50;99.90
1129;DHT22;553;51.038;7.216;2023-07-29T05:06:37;19.50;99.90
1129;DHT22;553;51.038;7.216;2023-07-29T05:09:18;19.50;99.90
1129;DHT22;553;51.038;7.216;2023-07-29T05:11:47;19.40;99.90
1129;DHT22;553;51.038;7.216;2023-07-29T05:14:17;19.40;99.90
1129;DHT22;553;51.038;7.216;2023-07-29T05:16:44;19.40;99.90
1129;DHT22;553;51.038;7.216;2023-07-29T05:19:11;19.40;99.90
1129;DHT22;553;51.038;7.216;2023-07-29T05:21:39;19.30;99.90
1129;DHT22;553;51.038;7.216;2023-07-29T05:24:06;19.30;99.90
1129;DHT22;553;51.038;7.216;2023-07-29T05:26:33;19.30;99.90
1129;DHT22;553;51.038;7.216;2023-07-29T05:29:01;19.30;99.90
1129;DHT22;553;51.038;7.216;2023-07-29T05:31:28;19.20;99.90
1129;DHT22;553;51.038;7.216;2023-07-29T05:33:54;19.30;99.90
1129;DHT22;553;51.038;7.216;2023-07-29T05:36:21;19.30;99.90
1129;DHT22;553;51.038;7.216;2023-07-29T05:38:48;19.30;99.90
1129;DHT22;553;51.038;7.216;2023-07-29T05:41:15;19.40;99.90
1129;DHT22;553;51.038;7.216;2023-07-29T05:43:42;19.40;99.90
1129;DHT22;553;51.038;7.216;2023-07-29T05:46:10;19.40;99.90
1129;DHT22;553;51.038;7.216;2023-07-29T05:48:37;19.40;99.90
1129;DHT22;553;51.038;7.216;2023-07-29T05:51:04;19.40;99.90
1129;DHT22;553;51.038;7.216;2023-07-29T05:53:32;19.50;99.90
1129;DHT22;553;51.038;7.216;2023-07-29T05:55:59;19.50;99.90
1129;DHT22;553;51.038;7.216;2023-07-29T05:58:26;19.40;99.90
1129;DHT22;553;51.038;7.216;2023-07-29T06:00:52;19.40;99.90
1129;DHT22;553;51.038;7.216;2023-07-29T06:03:19;19.40;99.90
1129;DHT22;553;51.038;7.216;2023-07-29T06:05:48;19.50;99.90
1129;DHT22;553;51.038;7.216;2023-07-29T06:08:16;19.40;99.90
1129;DHT22;553;51.038;7.216;2023-07-29T06:10:43;19.40;99.90
1129;DHT22;553;51.038;7.216;2023-07-29T06:13:10;19.30;99.90
1129;DHT22;553;51.038;7.216;2023-07-29T06:15:37;19.40;99.90
1129;DHT22;553;51.038;7.216;2023-07-29T06:18:03;19.40;99.90
1129;DHT22;553;51.038;7.216;2023-07-29T06:20:30;19.40;99.90
1129;DHT22;553;51.038;7.216;2023-07-29T06:22:57;19.40;99.90
1129;DHT22;553;51.038;7.216;2023-07-29T06:25:24;19.40;99.90
1129;DHT22;553;51.038;7.216;2023-07-29T06:27:51;19.30;99.90
1129;DHT22;553;51.038;7.216;2023-07-29T06:30:18;19.30;99.90
1129;DHT22;553;51.038;7.216;2023-07-29T06:32:44;19.30;99.90
1129;DHT22;553;51.038;7.216;2023-07-29T06:35:11;19.30;99.90
1129;DHT22;553;51.038;7.216;2023-07-29T06:37:38;19.40;99.90
1129;DHT22;553;51.038;7.216;2023-07-29T06:40:05;19.40;99.90
1129;DHT22;553;51.038;7.216;2023-07-29T06:42:32;19.40;99.90
1129;DHT22;553;51.038;7.216;2023-07-29T06:44:58;19.40;99.90
1129;DHT22;553;51.038;7.216;2023-07-29T06:47:25;19.40;99.90
1129;DHT22;553;51.038;7.216;2023-07-29T06:49:53;19.40;99.90
1129;DHT22;553;51.038;7.216;2023-07-29T06:52:20;19.40;99.90
1129;DHT22;553;51.038;7.216;2023-07-29T06:54:47;19.40;99.90
1129;DHT22;553;51.038;7.216;2023-07-29T06:57:14;19.30;99.90
1129;DHT22;553;51.038;7.216;2023-07-29T06:59:40;19.30;99.90
1129;DHT22;553;51.038;7.216;2023-07-29T07:02:07;19.30;99.90
1129;DHT22;553;51.038;7.216;2023-07-29T07:04:34;19.30;99.90
1129;DHT22;553;51.038;7.216;2023-07-29T07:07:01;19.30;99.90
1129;DHT22;553;51.038;7.216;2023-07-29T07:09:27;19.30;99.90
1129;DHT22;553;51.038;7.216;2023-07-29T07:11:54;19.30;99.90
1129;DHT22;553;51.038;7.216;2023-07-29T07:14:21;19.30;99.90
1129;DHT22;553;51.038;7.216;2023-07-29T07:16:47;19.30;99.90
1129;DHT22;553;51.038;7.216;2023-07-29T07:19:14;19.30;99.90
1129;DHT22;553;51.038;7.216;2023-07-29T07:21:41;19.30;99.90
1129;DHT22;553;51.038;7.216;2023-07-29T07:24:08;19.30;99.90
1129;DHT22;553;51.038;7.216;2023-07-29T07:26:34;19.30;99.90
1129;DHT22;553;51.038;7.216;2023-07-29T07:29:02;19.30;99.90
1129;DHT22;553;51.038;7.216;2023-07-29T07:31:28;19.50;99.90
1129;DHT22;553;51.038;7.216;2023-07-29T07:33:55;19.50;99.90
1129;DHT22;553;51.038;7.216;2023-07-29T07:36:22;19.70;99.90
1129;DHT22;553;51.038;7.216;2023-07-29T07:38:49;19.90;99.90
1129;DHT22;553;51.038;7.216;2023-07-29T07:41:15;19.90;99.90
1129;DHT22;553;51.038;7.216;2023-07-29T07:43:42;20.00;99.90
1129;DHT22;553;51.038;7.216;2023-07-29T07:46:09;19.90;99.90
1129;DHT22;553;51.038;7.216;2023-07-29T07:48:37;19.90;99.90
1129;DHT22;553;51.038;7.216;2023-07-29T07:51:11;19.90;99.90
1129;DHT22;553;51.038;7.216;2023-07-29T07:53:38;19.90;99.90
1129;DHT22;553;51.038;7.216;2023-07-29T07:56:06;19.70;99.90
1129;DHT22;553;51.038;7.216;2023-07-29T07:58:34;19.70;99.90
1129;DHT22;553;51.038;7.216;2023-07-29T08:01:02;19.70;99.90
1129;DHT22;553;51.038;7.216;2023-07-29T08:03:29;19.80;99.90
1129;DHT22;553;51.038;7.216;2023-07-29T08:05:56;19.90;99.90
1129;DHT22;553;51.038;7.216;2023-07-29T08:08:23;19.90;99.90
1129;DHT22;553;51.038;7.216;2023-07-29T08:10:50;19.80;99.90
1129;DHT22;553;51.038;7.216;2023-07-29T08:13:16;19.90;99.90
1129;DHT22;553;51.038;7.216;2023-07-29T08:15:47;20.00;99.90
1129;DHT22;553;51.038;7.216;2023-07-29T08:18:14;20.20;99.90
1129;DHT22;553;51.038;7.216;2023-07-29T08:20:41;20.40;99.90
1129;DHT22;553;51.038;7.216;2023-07-29T08:23:07;20.40;99.90
1129;DHT22;553;51.038;7.216;2023-07-29T08:25:34;20.50;99.90
1129;DHT22;553;51.038;7.216;2023-07-29T08:28:01;20.40;99.90
1129;DHT22;553;51.038;7.216;2023-07-29T08:30:28;20.50;99.90
1129;DHT22;553;51.038;7.216;2023-07-29T08:32:55;20.40;99.90
1129;DHT22;553;51.038;7.216;2023-07-29T08:35:21;20.60;99.90
1129;DHT22;553;51.038;7.216;2023-07-29T08:37:48;20.80;99.90
1129;DHT22;553;51.038;7.216;2023-07-29T08:40:15;20.80;99.90
1129;DHT22;553;51.038;7.216;2023-07-29T08:42:43;21.00;99.90
1129;DHT22;553;51.038;7.216;2023-07-29T08:45:11;21.10;99.90
1129;DHT22;553;51.038;7.216;2023-07-29T08:47:38;21.40;99.90
1129;DHT22;553;51.038;7.216;2023-07-29T08:50:06;21.30;99.90
1129;DHT22;553;51.038;7.216;2023-07-29T08:52:33;21.30;99.90
1129;DHT22;553;51.038;7.216;2023-07-29T08:55:02;21.50;99.90
1129;DHT22;553;51.038;7.216;2023-07-29T08:57:29;21.80;99.90
1129;DHT22;553;51.038;7.216;2023-07-29T08:59:57;21.80;99.90
1129;DHT22;553;51.038;7.216;2023-07-29T09:02:24;21.90;99.90
1129;DHT22;553;51.038;7.216;2023-07-29T09:04:51;21.80;99.90
1129;DHT22;553;51.038;7.216;2023-07-29T09:07:18;21.70;99.90
1129;DHT22;553;51.038;7.216;2023-07-29T09:09:45;21.30;99.90
1129;DHT22;553;51.038;7.216;2023-07-29T09:12:12;21.30;99.90
1129;DHT22;553;51.038;7.216;2023-07-29T09:14:39;21.20;99.90
1129;DHT22;553;51.038;7.216;2023-07-29T09:17:09;21.20;99.90
1129;DHT22;553;51.038;7.216;2023-07-29T09:19:37;21.10;99.90
1129;DHT22;553;51.038;7.216;2023-07-29T09:22:03;21.20;99.90
1129;DHT22;553;51.038;7.216;2023-07-29T09:24:30;21.20;99.90
1129;DHT22;553;51.038;7.216;2023-07-29T09:26:58;21.10;99.90
1129;DHT22;553;51.038;7.216;2023-07-29T09:29:28;21.10;99.90
1129;DHT22;553;51.038;7.216;2023-07-29T09:32:21;21.00;99.90
1129;DHT22;553;51.038;7.216;2023-07-29T09:34:48;21.10;99.90
1129;DHT22;553;51.038;7.216;2023-07-29T09:37:17;21.10;99.90
1129;DHT22;553;51.038;7.216;2023-07-29T09:39:45;21.20;99.90
1129;DHT22;553;51.038;7.216;2023-07-29T09:42:19;21.30;99.90
1129;DHT22;553;51.038;7.216;2023-07-29T09:44:47;21.40;99.90
1129;DHT22;553;51.038;7.216;2023-07-29T09:47:22;21.50;99.90
1129;DHT22;553;51.038;7.216;2023-07-29T09:49:50;21.30;99.90
1129;DHT22;553;51.038;7.216;2023-07-29T09:52:18;21.30;99.90
1129;DHT22;553;51.038;7.216;2023-07-29T09:54:46;21.40;99.90
1129;DHT22;553;51.038;7.216;2023-07-29T09:57:14;21.40;99.90
1129;DHT22;553;51.038;7.216;2023-07-29T09:59:41;21.40;99.90
1129;DHT22;553;51.038;7.216;2023-07-29T10:02:14;21.30;99.90
1129;DHT22;553;51.038;7.216;2023-07-29T10:04:42;21.30;99.90
1129;DHT22;553;51.038;7.216;2023-07-29T10:07:11;21.30;99.90
1129;DHT22;553;51.038;7.216;2023-07-29T10:09:39;21.40;99.90
1129;DHT22;553;51.038;7.216;2023-07-29T10:12:07;21.10;99.90
1129;DHT22;553;51.038;7.216;2023-07-29T10:14:35;20.90;99.90
1129;DHT22;553;51.038;7.216;2023-07-29T10:17:06;20.90;99.90
1129;DHT22;553;51.038;7.216;2023-07-29T10:19:35;21.10;99.90
1129;DHT22;553;51.038;7.216;2023-07-29T10:22:03;21.20;99.90
1129;DHT22;553;51.038;7.216;2023-07-29T10:24:32;21.40;99.90
1129;DHT22;553;51.038;7.216;2023-07-29T10:27:01;21.50;99.90
1129;DHT22;553;51.038;7.216;2023-07-29T10:29:31;21.50;99.90
1129;DHT22;553;51.038;7.216;2023-07-29T10:32:02;21.40;99.90
1129;DHT22;553;51.038;7.216;2023-07-29T10:34:31;21.30;99.90
1129;DHT22;553;51.038;7.216;2023-07-29T10:36:59;21.40;99.90
1129;DHT22;553;51.038;7.216;2023-07-29T10:39:26;21.70;99.90
1129;DHT22;553;51.038;7.216;2023-07-29T10:47:17;22.40;99.90
1129;DHT22;553;51.038;7.216;2023-07-29T10:49:44;22.40;99.10
1129;DHT22;553;51.038;7.216;2023-07-29T10:52:16;22.10;98.30
1129;DHT22;553;51.038;7.216;2023-07-29T10:54:47;22.10;99.90
1129;DHT22;553;51.038;7.216;2023-07-29T10:57:15;21.90;99.70
1129;DHT22;553;51.038;7.216;2023-07-29T10:59:54;22.00;99.90
1129;DHT22;553;51.038;7.216;2023-07-29T11:02:38;22.00;99.90
1129;DHT22;553;51.038;7.216;2023-07-29T11:05:17;21.90;99.90
1129;DHT22;553;51.038;7.216;2023-07-29T11:07:46;21.70;99.90
1129;DHT22;553;51.038;7.216;2023-07-29T11:10:14;21.30;99.90
1129;DHT22;553;51.038;7.216;2023-07-29T11:12:49;21.30;99.90
1129;DHT22;553;51.038;7.216;2023-07-29T11:15:22;21.40;99.90
1129;DHT22;553;51.038;7.216;2023-07-29T11:17:56;21.40;99.90
1129;DHT22;553;51.038;7.216;2023-07-29T11:20:31;21.40;99.90
1129;DHT22;553;51.038;7.216;2023-07-29T11:23:02;21.30;99.90
1129;DHT22;553;51.038;7.216;2023-07-29T11:25:30;21.40;99.90
1129;DHT22;553;51.038;7.216;2023-07-29T11:27:59;21.50;99.90
1129;DHT22;553;51.038;7.216;2023-07-29T11:30:28;21.30;99.90
1129;DHT22;553;51.038;7.216;2023-07-29T11:33:00;21.30;99.90
1129;DHT22;553;51.038;7.216;2023-07-29T11:35:27;21.50;99.90
1129;DHT22;553;51.038;7.216;2023-07-29T11:37:55;21.50;99.90
1129;DHT22;553;51.038;7.216;2023-07-29T11:40:24;21.70;99.90
1129;DHT22;553;51.038;7.216;2023-07-29T11:42:52;21.60;99.90
1129;DHT22;553;51.038;7.216;2023-07-29T11:45:20;21.60;99.90
1129;DHT22;553;51.038;7.216;2023-07-29T11:47:49;21.60;99.90
1129;DHT22;553;51.038;7.216;2023-07-29T11:50:16;21.80;99.90
1129;DHT22;553;51.038;7.216;2023-07-29T11:52:44;21.70;99.90
1129;DHT22;553;51.038;7.216;2023-07-29T11:55:13;21.80;99.90
1129;DHT22;553;51.038;7.216;2023-07-29T11:57:41;21.90;99.90
1129;DHT22;553;51.038;7.216;2023-07-29T12:00:10;22.00;99.90
1129;DHT22;553;51.038;7.216;2023-07-29T12:02:42;22.20;99.90
1129;DHT22;553;51.038;7.216;2023-07-29T12:05:12;22.30;99.90
1129;DHT22;553;51.038;7.216;2023-07-29T12:07:40;22.20;99.90
1129;DHT22;553;51.038;7.216;2023-07-29T12:10:08;22.30;99.90
1129;DHT22;553;51.038;7.216;2023-07-29T12:12:44;22.30;99.90
1129;DHT22;553;51.038;7.216;2023-07-29T12:15:12;22.30;99.90
1129;DHT22;553;51.038;7.216;2023-07-29T12:17:42;22.20;99.90
1129;DHT22;553;51.038;7.216;2023-07-29T12:20:09;22.20;99.90
1129;DHT22;553;51.038;7.216;2023-07-29T12:22:37;22.20;99.90
1129;DHT22;553;51.038;7.216;2023-07-29T12:25:04;22.40;99.90
1129;DHT22;553;51.038;7.216;2023-07-29T12:27:31;22.40;99.90
1129;DHT22;553;51.038;7.216;2023-07-29T12:29:58;22.30;99.90
1129;DHT22;553;51.038;7.216;2023-07-29T12:32:29;22.50;99.90
1129;DHT22;553;51.038;7.216;2023-07-29T12:34:57;22.70;99.90
1129;DHT22;553;51.038;7.216;2023-07-29T12:37:31;22.60;99.90
1129;DHT22;553;51.038;7.216;2023-07-29T12:39:58;22.70;99.90
1129;DHT22;553;51.038;7.216;2023-07-29T12:42:25;22.90;99.90
1129;DHT22;553;51.038;7.216;2023-07-29T12:44:52;23.00;98.60
1129;DHT22;553;51.038;7.216;2023-07-29T12:47:18;22.90;99.30
1129;DHT22;553;51.038;7.216;2023-07-29T12:49:45;22.70;99.90
1129;DHT22;553;51.038;7.216;2023-07-29T12:52:12;22.80;99.90
1129;DHT22;553;51.038;7.216;2023-07-29T12:54:39;22.70;99.10
1129;DHT22;553;51.038;7.216;2023-07-29T12:57:06;22.60;98.30
1129;DHT22;553;51.038;7.216;2023-07-29T12:59:33;22.50;99.90
1129;DHT22;553;51.038;7.216;2023-07-29T13:02:00;22.50;99.80
1129;DHT22;553;51.038;7.216;2023-07-29T13:04:27;22.60;99.80
1129;DHT22;553;51.038;7.216;2023-07-29T13:06:53;22.70;99.00
1129;DHT22;553;51.038;7.216;2023-07-29T13:09:20;22.80;99.90
1129;DHT22;553;51.038;7.216;2023-07-29T13:11:47;22.80;99.20
1129;DHT22;553;51.038;7.216;2023-07-29T13:14:13;23.10;99.20
1129;DHT22;553;51.038;7.216;2023-07-29T13:16:40;23.20;97.10
1129;DHT22;553;51.038;7.216;2023-07-29T13:19:07;23.30;96.20
1129;DHT22;553;51.038;7.216;2023-07-29T13:21:34;23.10;95.90
1129;DHT22;553;51.038;7.216;2023-07-29T13:24:01;23.20;96.40
1129;DHT22;553;51.038;7.216;2023-07-29T13:26:27;23.30;95.40
1129;DHT22;553;51.038;7.216;2023-07-29T13:28:54;23.30;94.90
1129;DHT22;553;51.038;7.216;2023-07-29T13:31:22;23.50;95.20
1129;DHT22;553;51.038;7.216;2023-07-29T13:33:49;23.40;94.00
1129;DHT22;553;51.038;7.216;2023-07-29T13:36:15;23.30;95.50
1129;DHT22;553;51.038;7.216;2023-07-29T13:38:42;23.20;95.80
1129;DHT22;553;51.038;7.216;2023-07-29T13:41:09;23.10;95.40
1129;DHT22;553;51.038;7.216;2023-07-29T13:43:36;23.20;95.30
1129;DHT22;553;51.038;7.216;2023-07-29T13:46:02;23.10;95.70
1129;DHT22;553;51.038;7.216;2023-07-29T13:48:29;23.10;96.70
1129;DHT22;553;51.038;7.216;2023-07-29T13:50:56;22.90;96.00
1129;DHT22;553;51.038;7.216;2023-07-29T13:53:23;22.80;97.70
1129;DHT22;553;51.038;7.216;2023-07-29T13:55:50;22.90;98.40
1129;DHT22;553;51.038;7.216;2023-07-29T13:58:17;22.80;99.40
1129;DHT22;553;51.038;7.216;2023-07-29T14:00:43;22.60;99.90
1129;DHT22;553;51.038;7.216;2023-07-29T14:03:10;22.70;99.90
1129;DHT22;553;51.038;7.216;2023-07-29T14:05:37;22.60;99.90
1129;DHT22;553;51.038;7.216;2023-07-29T14:08:04;22.50;99.90
1129;DHT22;553;51.038;7.216;2023-07-29T14:10:30;22.40;99.90
1129;DHT22;553;51.038;7.216;2023-07-29T14:12:57;22.30;99.90
1129;DHT22;553;51.038;7.216;2023-07-29T14:15:24;22.20;99.90
1129;DHT22;553;51.038;7.216;2023-07-29T14:17:51;22.20;99.90
1129;DHT22;553;51.038;7.216;2023-07-29T14:20:18;22.20;99.90
1129;DHT22;553;51.038;7.216;2023-07-29T14:22:48;22.00;99.90
1129;DHT22;553;51.038;7.216;2023-07-29T14:25:15;21.90;99.90
1129;DHT22;553;51.038;7.216;2023-07-29T14:27:41;22.00;99.90
1129;DHT22;553;51.038;7.216;2023-07-29T14:30:08;21.90;99.90
1129;DHT22;553;51.038;7.216;2023-07-29T14:32:35;21.90;99.90
1129;DHT22;553;51.038;7.216;2023-07-29T14:35:04;21.90;99.90
1129;DHT22;553;51.038;7.216;2023-07-29T14:37:31;22.00;99.90
1129;DHT22;553;51.038;7.216;2023-07-29T14:39:58;22.20;99.90
1129;DHT22;553;51.038;7.216;2023-07-29T14:42:26;22.40;99.90
1129;DHT22;553;51.038;7.216;2023-07-29T14:44:54;22.50;99.90
1129;DHT22;553;51.038;7.216;2023-07-29T14:47:21;22.60;99.90
1129;DHT22;553;51.038;7.216;2023-07-29T14:49:47;22.50;99.90
1129;DHT22;553;51.038;7.216;2023-07-29T14:52:14;22.40;99.90
1129;DHT22;553;51.038;7.216;2023-07-29T14:54:41;22.50;99.90
1129;DHT22;553;51.038;7.216;2023-07-29T14:57:09;22.30;99.90
1129;DHT22;553;51.038;7.216;2023-07-29T14:59:36;22.30;99.90
1129;DHT22;553;51.038;7.216;2023-07-29T15:02:03;22.40;99.90
1129;DHT22;553;51.038;7.216;2023-07-29T15:04:30;22.40;99.90
1129;DHT22;553;51.038;7.216;2023-07-29T15:06:56;22.50;99.90
1129;DHT22;553;51.038;7.216;2023-07-29T15:09:24;22.50;99.90
1129;DHT22;553;51.038;7.216;2023-07-29T15:11:51;22.40;99.90
1129;DHT22;553;51.038;7.216;2023-07-29T15:14:18;22.40;99.90
1129;DHT22;553;51.038;7.216;2023-07-29T15:16:45;22.40;99.90
1129;DHT22;553;51.038;7.216;2023-07-29T15:19:12;22.40;99.90
1129;DHT22;553;51.038;7.216;2023-07-29T15:21:44;22.50;99.90
1129;DHT22;553;51.038;7.216;2023-07-29T15:24:11;22.50;99.90
1129;DHT22;553;51.038;7.216;2023-07-29T15:26:38;22.40;99.90
1129;DHT22;553;51.038;7.216;2023-07-29T15:29:05;22.40;99.90
1129;DHT22;553;51.038;7.216;2023-07-29T15:31:34;22.40;99.90
1129;DHT22;553;51.038;7.216;2023-07-29T15:34:02;22.40;99.90
1129;DHT22;553;51.038;7.216;2023-07-29T15:36:28;22.40;99.90
1129;DHT22;553;51.038;7.216;2023-07-29T15:38:55;22.40;99.90
1129;DHT22;553;51.038;7.216;2023-07-29T15:41:22;22.30;99.90
1129;DHT22;553;51.038;7.216;2023-07-29T15:43:49;22.40;99.90
1129;DHT22;553;51.038;7.216;2023-07-29T15:46:15;22.30;99.90
1129;DHT22;553;51.038;7.216;2023-07-29T15:48:42;22.20;99.90
1129;DHT22;553;51.038;7.216;2023-07-29T15:51:09;22.30;99.90
1129;DHT22;553;51.038;7.216;2023-07-29T15:53:36;22.20;99.90
1129;DHT22;553;51.038;7.216;2023-07-29T15:56:03;22.10;99.90
1129;DHT22;553;51.038;7.216;2023-07-29T15:58:29;22.10;99.90
1129;DHT22;553;51.038;7.216;2023-07-29T16:00:56;22.20;99.90
1129;DHT22;553;51.038;7.216;2023-07-29T16:03:23;22.30;99.90
1129;DHT22;553;51.038;7.216;2023-07-29T16:05:50;22.30;99.90
1129;DHT22;553;51.038;7.216;2023-07-29T16:08:17;22.30;99.90
1129;DHT22;553;51.038;7.216;2023-07-29T16:10:43;22.30;99.90
1129;DHT22;553;51.038;7.216;2023-07-29T16:13:10;22.50;99.90
1129;DHT22;553;51.038;7.216;2023-07-29T16:15:39;22.50;99.90
1129;DHT22;553;51.038;7.216;2023-07-29T16:18:06;22.50;99.90
1129;DHT22;553;51.038;7.216;2023-07-29T16:20:33;22.40;99.90
1129;DHT22;553;51.038;7.216;2023-07-29T16:23:00;22.40;99.90
1129;DHT22;553;51.038;7.216;2023-07-29T16:25:26;22.40;99.90
1129;DHT22;553;51.038;7.216;2023-07-29T16:27:53;22.50;99.90
1129;DHT22;553;51.038;7.216;2023-07-29T16:30:22;22.40;99.90